Time;durP1;ratioP1;P1;durP2;ratioP2;P2;SDS_P1;SDS_P2;PMS_P1;PMS_P2;Temp;Humidity;BMP_temperature;BMP_pressure;BME280_temperature;BME280_humidity;BME280_pressure;Samples;Min_cycle;Max_cycle;Signal;HPM_P1;HPM_P2
2022/07/25 00:01:28;;;;;;;1.60;1.13;;;;;;;21.97;84.29;101055.84;5078785;28;20031;-72
2022/07/25 00:03:54;;;;;;;5.05;1.33;;;;;;;21.98;84.02;101049.44;5071536;28;20044;-72
2022/07/25 00:06:19;;;;;;;2.38;1.40;;;;;;;21.93;84.38;101047.41;5062062;28;20484;-72
2022/07/25 00:08:44;;;;;;;1.30;0.85;;;;;;;21.93;84.42;101033.97;5072981;28;20029;-72
2022/07/25 00:11:10;;;;;;;2.47;1.10;;;;;;;21.81;84.25;101024.97;5073549;28;20476;-72
2022/07/25 00:13:35;;;;;;;2.88;1.35;;;;;;;21.86;84.94;101037.75;5079261;28;20084;-72
2022/07/25 00:16:01;;;;;;;2.55;1.50;;;;;;;21.86;84.76;101035.91;5077830;28;20488;-72
2022/07/25 00:18:26;;;;;;;3.90;2.20;;;;;;;21.86;85.17;101037.75;5070965;28;20155;-72
2022/07/25 00:20:52;;;;;;;2.90;1.58;;;;;;;21.86;84.85;101038.59;5071187;28;20033;-72
2022/07/25 00:23:17;;;;;;;1.80;1.15;;;;;;;21.80;85.03;101030.56;5075243;28;20059;-72
2022/07/25 00:25:43;;;;;;;2.67;1.55;;;;;;;21.80;85.47;101028.72;5073603;28;20028;-72
2022/07/25 00:28:08;;;;;;;2.25;1.52;;;;;;;21.75;85.50;101021.34;5074466;28;20025;-72
2022/07/25 00:30:33;;;;;;;2.55;1.60;;;;;;;21.72;85.91;101020.94;5082963;28;20116;-72
2022/07/25 00:32:59;;;;;;;2.33;1.10;;;;;;;21.73;86.01;101018.03;5074811;28;20442;-72
2022/07/25 00:35:24;;;;;;;2.10;1.58;;;;;;;21.71;85.95;101014.75;5076037;28;20547;-72
2022/07/25 00:37:50;;;;;;;3.50;1.50;;;;;;;21.71;85.84;101020.13;5077428;28;20040;-72
2022/07/25 00:40:16;;;;;;;2.85;2.00;;;;;;;21.70;85.62;101005.03;5085172;28;20035;-72
2022/07/25 00:42:41;;;;;;;2.60;1.70;;;;;;;21.67;85.62;101004.66;5079673;28;20108;-72
2022/07/25 00:45:07;;;;;;;3.42;1.40;;;;;;;21.66;85.75;101001.13;5086310;28;20479;-72
2022/07/25 00:47:32;;;;;;;4.78;1.50;;;;;;;21.64;85.88;101003.22;5083178;28;20032;-72
2022/07/25 00:49:57;;;;;;;3.40;1.65;;;;;;;21.55;85.76;100983.06;5087463;28;20158;-72
2022/07/25 00:52:23;;;;;;;2.92;1.40;;;;;;;21.62;85.84;100994.56;5086089;28;20488;-72
2022/07/25 00:54:49;;;;;;;2.47;1.58;;;;;;;21.63;85.73;100992.72;5068758;28;20039;-72
2022/07/25 00:57:14;;;;;;;4.45;1.70;;;;;;;21.63;85.92;100988.16;5079881;28;20162;-72
2022/07/25 00:59:40;;;;;;;3.78;2.00;;;;;;;21.60;85.98;100979.72;5071261;28;20027;-72
2022/07/25 01:02:05;;;;;;;6.70;2.17;;;;;;;21.46;86.09;100963.72;5074249;28;20027;-72
2022/07/25 01:04:31;;;;;;;2.70;1.80;;;;;;;21.54;86.33;100976.06;5072175;28;20111;-72
2022/07/25 01:06:56;;;;;;;3.85;2.35;;;;;;;21.52;86.50;100970.09;5080992;28;20480;-72
2022/07/25 01:09:22;;;;;;;2.53;2.03;;;;;;;21.48;86.27;100971.56;5075219;28;20029;-72
2022/07/25 01:11:47;;;;;;;3.83;2.47;;;;;;;21.45;86.50;100959.41;5074694;28;20064;-72
2022/07/25 01:14:13;;;;;;;5.22;2.38;;;;;;;21.42;86.45;100956.31;5070670;28;20028;-71
2022/07/25 01:16:40;;;;;;;3.38;2.28;;;;;;;21.42;86.65;100956.31;5072981;28;20028;-72
2022/07/25 01:19:05;;;;;;;2.45;2.00;;;;;;;21.37;86.42;100955.06;5071278;28;20125;-72
2022/07/25 01:21:31;;;;;;;2.97;2.65;;;;;;;21.37;86.87;100955.06;5073045;28;20074;-72
2022/07/25 01:23:56;;;;;;;6.45;2.15;;;;;;;21.28;86.97;100948.34;5072048;28;20454;-72
2022/07/25 01:26:22;;;;;;;4.15;1.90;;;;;;;21.33;87.43;100945.00;5073426;28;20126;-72
2022/07/25 01:28:47;;;;;;;3.38;2.45;;;;;;;21.26;87.57;100941.56;5086507;28;20058;-72
2022/07/25 01:31:13;;;;;;;2.42;1.58;;;;;;;21.26;87.62;100937.00;5075898;28;20032;-72
2022/07/25 01:33:38;;;;;;;6.47;2.17;;;;;;;21.13;87.49;100926.38;5078903;28;20077;-72
2022/07/25 01:36:04;;;;;;;5.25;2.47;;;;;;;21.18;87.77;100939.94;5075484;28;20456;-72
2022/07/25 01:38:30;;;;;;;3.70;2.72;;;;;;;21.16;87.79;100933.97;5078993;28;20479;-72
2022/07/25 01:40:55;;;;;;;3.63;2.38;;;;;;;21.01;87.61;100915.50;5078378;28;20070;-72
2022/07/25 01:43:21;;;;;;;4.30;2.65;;;;;;;21.06;88.23;100931.78;5078233;28;20024;-72
2022/07/25 01:45:46;;;;;;;4.25;2.60;;;;;;;21.03;88.63;100931.38;5082303;28;20570;-72
2022/07/25 01:48:11;;;;;;;3.45;2.35;;;;;;;20.94;88.70;100920.09;5084852;28;20088;-72
2022/07/25 01:50:37;;;;;;;4.35;2.42;;;;;;;20.92;89.22;100923.00;5084910;28;20054;-72
2022/07/25 01:53:03;;;;;;;4.65;2.53;;;;;;;20.84;89.41;100920.59;5064819;28;20111;-72
2022/07/25 01:55:28;;;;;;;7.10;2.63;;;;;;;20.79;89.38;100912.34;5077600;28;20434;-72
2022/07/25 01:57:54;;;;;;;7.00;3.10;;;;;;;20.74;89.83;100912.19;5079494;28;20024;-72
2022/07/25 02:00:19;;;;;;;4.28;2.33;;;;;;;20.68;90.05;100911.16;5079901;28;20032;-72
2022/07/25 02:02:46;;;;;;;4.00;2.97;;;;;;;20.66;90.38;100907.88;5076579;28;20377;-72
2022/07/25 02:05:13;;;;;;;3.55;3.10;;;;;;;20.61;90.40;100901.53;5072196;28;20059;-72
2022/07/25 02:07:38;;;;;;;5.85;3.35;;;;;;;20.52;90.04;100890.22;5079152;28;20123;-72
2022/07/25 02:10:05;;;;;;;4.72;2.90;;;;;;;20.52;89.63;100893.72;5082251;28;20123;-72
2022/07/25 02:12:31;;;;;;;13.27;4.60;;;;;;;20.49;89.87;100899.50;5071992;28;20398;-72
2022/07/25 02:14:56;;;;;;;6.88;3.50;;;;;;;20.48;89.65;100895.16;5079817;28;20024;-72
2022/07/25 02:17:22;;;;;;;9.02;3.70;;;;;;;20.46;89.05;100889.19;5083248;28;20023;-71
2022/07/25 02:19:47;;;;;;;4.97;3.05;;;;;;;20.49;87.75;100907.56;5072054;28;20115;-72
2022/07/25 02:22:13;;;;;;;4.28;2.92;;;;;;;20.59;86.21;100923.19;5058761;28;20034;-72
2022/07/25 02:24:38;;;;;;;5.45;2.38;;;;;;;20.67;86.61;100912.22;5077344;28;20361;-72
2022/07/25 02:27:04;;;;;;;3.53;2.60;;;;;;;20.62;86.10;100889.75;5076181;28;20096;-72
2022/07/25 02:29:31;;;;;;;5.15;3.45;;;;;;;20.61;88.66;100890.81;5076362;28;20028;-72
2022/07/25 02:31:56;;;;;;;3.97;2.65;;;;;;;20.54;89.36;100899.69;5083526;28;20395;-72
2022/07/25 02:34:21;;;;;;;4.68;2.78;;;;;;;20.59;86.56;100912.47;5071284;28;20024;-72
2022/07/25 02:36:47;;;;;;;6.65;3.90;;;;;;;20.68;85.95;100902.31;5073862;28;20432;-72
2022/07/25 02:39:12;;;;;;;3.95;1.98;;;;;;;20.74;85.19;100904.94;5071421;28;20027;-72
2022/07/25 02:41:38;;;;;;;8.20;3.08;;;;;;;20.68;87.67;100873.63;5079084;28;20369;-72
2022/07/25 02:44:05;;;;;;;6.63;3.30;;;;;;;20.82;87.05;100893.16;5079663;28;20115;-72
2022/07/25 02:46:30;;;;;;;5.88;2.22;;;;;;;20.87;84.80;100884.47;5075627;28;20035;-72
2022/07/25 02:48:56;;;;;;;2.60;1.95;;;;;;;20.96;85.28;100878.59;5075892;28;20028;-72
2022/07/25 02:51:21;;;;;;;5.05;2.72;;;;;;;21.02;85.41;100870.72;5076773;28;20156;-72
2022/07/25 02:53:46;;;;;;;4.80;3.22;;;;;;;21.04;85.54;100866.78;5077570;28;20032;-72
2022/07/25 02:56:12;;;;;;;4.95;2.67;;;;;;;21.02;84.99;100854.63;5075154;28;20032;-72
2022/07/25 02:58:37;;;;;;;4.38;2.75;;;;;;;21.06;84.43;100861.22;5059293;28;20025;-72
2022/07/25 03:01:03;;;;;;;4.13;2.42;;;;;;;21.09;83.62;100860.75;5079059;28;20031;-72
2022/07/25 03:03:28;;;;;;;3.00;2.15;;;;;;;21.10;85.10;100857.03;5077633;28;20346;-72
2022/07/25 03:05:53;;;;;;;7.18;3.10;;;;;;;21.05;85.34;100856.88;5071439;28;20116;-72
2022/07/25 03:08:19;;;;;;;6.00;3.22;;;;;;;20.94;86.08;100844.97;5071927;28;20578;-72
2022/07/25 03:10:44;;;;;;;3.72;2.28;;;;;;;20.90;86.98;100836.53;5073109;28;20046;-72
2022/07/25 03:13:10;;;;;;;4.63;2.58;;;;;;;20.91;85.93;100832.00;5073956;28;20472;-72
2022/07/25 03:15:35;;;;;;;4.50;2.47;;;;;;;20.95;84.39;100825.19;5074826;28;20504;-72
2022/07/25 03:18:00;;;;;;;2.92;1.63;;;;;;;21.00;82.27;100829.88;5054510;28;20027;-72
2022/07/25 03:20:26;;;;;;;3.22;2.17;;;;;;;21.05;82.61;100832.72;5079619;28;20063;-72
2022/07/25 03:22:51;;;;;;;4.05;1.83;;;;;;;21.07;82.55;100815.34;5075551;28;20384;-72
2022/07/25 03:25:16;;;;;;;4.80;3.20;;;;;;;21.07;85.17;100807.31;5078850;28;20036;-72
2022/07/25 03:27:42;;;;;;;4.90;2.78;;;;;;;20.88;86.90;100794.88;5076948;28;20036;-72
2022/07/25 03:30:08;;;;;;;5.40;3.50;;;;;;;20.88;87.48;100800.25;5078094;28;20086;-72
2022/07/25 03:32:33;;;;;;;5.93;3.35;;;;;;;20.85;86.74;100795.34;5079473;28;20038;-72
2022/07/25 03:34:59;;;;;;;3.83;2.15;;;;;;;20.88;83.86;100800.25;5076423;28;20123;-72
2022/07/25 03:37:24;;;;;;;3.42;2.08;;;;;;;20.89;82.51;100818.00;5080331;28;20508;-72
2022/07/25 03:39:49;;;;;;;4.20;2.47;;;;;;;20.92;82.42;100818.38;5076385;28;20056;-72
2022/07/25 03:42:15;;;;;;;6.30;2.70;;;;;;;20.93;86.14;100809.28;5077400;28;20028;-72
2022/07/25 03:44:41;;;;;;;5.00;3.72;;;;;;;20.80;87.38;100792.50;5074655;28;20024;-72
2022/07/25 03:47:06;;;;;;;4.82;2.97;;;;;;;20.72;88.05;100790.91;5066100;28;20033;-72
2022/07/25 03:49:32;;;;;;;3.65;2.33;;;;;;;20.74;86.74;100786.94;5076243;28;20470;-72
2022/07/25 03:51:57;;;;;;;5.55;2.72;;;;;;;20.82;85.90;100776.97;5079310;28;20041;-72
2022/07/25 03:54:22;;;;;;;4.10;2.55;;;;;;;20.80;88.14;100771.84;5074120;28;20031;-72
2022/07/25 03:56:50;;;;;;;3.25;2.72;;;;;;;20.83;88.28;100775.94;5074278;28;20050;-72
2022/07/25 03:59:19;;;;;;;3.88;2.58;;;;;;;20.88;86.56;100774.25;5078740;28;20034;-72
2022/07/25 04:01:47;;;;;;;3.90;2.90;;;;;;;20.94;86.36;100768.00;5078676;28;20025;-72
2022/07/25 04:04:13;;;;;;;4.13;3.58;;;;;;;20.88;86.41;100762.69;5081488;28;20031;-72
2022/07/25 04:06:39;;;;;;;5.57;3.55;;;;;;;20.78;86.55;100757.84;5083405;28;20021;-72
2022/07/25 04:09:06;;;;;;;6.90;3.72;;;;;;;20.74;86.73;100768.16;5081303;28;20097;-72
2022/07/25 04:11:31;;;;;;;6.55;4.13;;;;;;;20.54;86.36;100756.78;5081378;28;20381;-72
2022/07/25 04:13:57;;;;;;;6.90;3.72;;;;;;;20.51;86.16;100746.47;5082611;28;20025;-72
2022/07/25 04:16:23;;;;;;;8.15;4.05;;;;;;;20.58;85.50;100751.81;5076306;28;20028;-72
2022/07/25 04:18:50;;;;;;;5.68;3.78;;;;;;;20.61;85.63;100748.69;5074984;28;20032;-72
2022/07/25 04:21:15;;;;;;;8.63;3.45;;;;;;;20.57;85.56;100742.94;5078199;28;20024;-72
2022/07/25 04:23:41;;;;;;;6.57;4.47;;;;;;;20.59;85.26;100750.78;5058209;28;20029;-71
2022/07/25 04:26:06;;;;;;;6.70;4.10;;;;;;;20.53;85.79;100734.50;5078020;28;20031;-72
2022/07/25 04:28:32;;;;;;;6.18;4.13;;;;;;;20.50;85.71;100724.19;5076268;28;20038;-71
2022/07/25 04:30:57;;;;;;;5.75;4.85;;;;;;;20.45;86.00;100716.00;5081326;28;20088;-71
2022/07/25 04:33:23;;;;;;;6.85;4.10;;;;;;;20.46;85.87;100731.03;5058602;28;20514;-70
2022/07/25 04:35:49;;;;;;;7.15;4.50;;;;;;;20.53;85.88;100741.72;5081646;28;20024;-70
2022/07/25 04:38:15;;;;;;;4.95;3.72;;;;;;;20.59;85.83;100737.38;5081561;28;20585;-72
2022/07/25 04:40:41;;;;;;;4.70;3.50;;;;;;;20.58;85.84;100749.97;5080812;28;20032;-72
2022/07/25 04:43:07;;;;;;;6.20;4.70;;;;;;;20.42;86.04;100715.59;5079499;28;20024;-73
2022/07/25 04:45:33;;;;;;;8.43;4.60;;;;;;;20.43;86.84;100723.44;5079898;28;20359;-72
2022/07/25 04:47:59;;;;;;;6.43;4.72;;;;;;;20.44;87.43;100737.66;5080356;28;20032;-72
2022/07/25 04:50:25;;;;;;;4.45;3.33;;;;;;;20.60;86.62;100733.63;5076911;28;20419;-72
2022/07/25 04:52:51;;;;;;;6.10;4.50;;;;;;;20.70;86.80;100720.56;5081971;28;20020;-71
2022/07/25 04:55:16;;;;;;;7.45;3.90;;;;;;;20.78;87.22;100731.03;5062459;28;20043;-71
2022/07/25 04:57:42;;;;;;;6.00;4.07;;;;;;;20.74;87.65;100735.19;5074866;28;20025;-72
2022/07/25 05:00:09;;;;;;;6.32;4.85;;;;;;;20.74;87.30;100729.81;5074337;28;20412;-72
2022/07/25 05:02:35;;;;;;;7.05;5.05;;;;;;;20.72;87.25;100726.53;5069592;28;20032;-71
2022/07/25 05:05:00;;;;;;;5.35;4.30;;;;;;;20.66;87.90;100725.53;5069508;28;20234;-71
2022/07/25 05:07:26;;;;;;;6.35;4.68;;;;;;;20.48;88.37;100710.19;5070521;28;20119;-72
2022/07/25 05:09:51;;;;;;;8.02;5.63;;;;;;;20.47;89.15;100724.66;5072835;28;20024;-71
2022/07/25 05:12:17;;;;;;;7.60;4.80;;;;;;;20.38;89.09;100720.56;5070490;28;20488;-71
2022/07/25 05:14:42;;;;;;;10.32;5.47;;;;;;;20.34;89.54;100719.41;5068087;28;20043;-71
2022/07/25 05:17:08;;;;;;;8.35;4.97;;;;;;;20.37;89.38;100710.91;5051700;28;20029;-71
2022/07/25 05:19:33;;;;;;;8.07;5.03;;;;;;;20.35;89.72;100695.03;5071611;28;20048;-71
2022/07/25 05:21:59;;;;;;;11.02;5.35;;;;;;;20.45;89.84;100710.66;5071441;28;20024;-71
2022/07/25 05:24:24;;;;;;;9.27;5.35;;;;;;;20.50;88.84;100710.78;5069409;28;20623;-70
2022/07/25 05:26:50;;;;;;;8.00;4.50;;;;;;;20.64;89.07;100702.66;5068164;28;20038;-71
2022/07/25 05:29:15;;;;;;;6.78;4.30;;;;;;;20.75;88.41;100699.25;5069512;28;20613;-71
2022/07/25 05:31:41;;;;;;;8.40;4.95;;;;;;;20.77;87.69;100696.38;5072738;28;20028;-71
2022/07/25 05:34:06;;;;;;;11.77;5.32;;;;;;;20.83;88.21;100696.31;5071715;28;20379;-71
2022/07/25 05:36:32;;;;;;;8.48;5.35;;;;;;;20.98;87.73;100695.94;5066591;28;20024;-71
2022/07/25 05:38:58;;;;;;;9.05;4.57;;;;;;;21.07;87.74;100708.03;5065280;28;20037;-71
2022/07/25 05:41:23;;;;;;;5.78;4.55;;;;;;;21.35;86.38;100707.50;5069627;28;20027;-71
2022/07/25 05:43:49;;;;;;;6.60;5.05;;;;;;;21.35;86.65;100699.44;5072551;28;20511;-71
2022/07/25 05:46:15;;;;;;;7.38;4.55;;;;;;;21.36;86.38;100686.84;5072663;28;20400;-71
2022/07/25 05:48:41;;;;;;;5.20;3.40;;;;;;;21.64;86.15;100702.41;5081198;28;20021;-71
2022/07/25 05:51:06;;;;;;;5.72;4.30;;;;;;;21.81;85.35;100707.16;5074469;28;20040;-72
2022/07/25 05:53:32;;;;;;;6.47;4.55;;;;;;;21.86;84.52;100708.16;5073972;28;20032;-71
2022/07/25 05:55:57;;;;;;;8.45;4.68;;;;;;;21.80;84.60;100702.84;5075944;28;20111;-71
2022/07/25 05:58:23;;;;;;;5.95;4.53;;;;;;;21.69;85.13;100694.53;5073865;28;20480;-72
2022/07/25 06:00:49;;;;;;;6.35;4.25;;;;;;;21.58;85.71;100692.59;5081376;28;20476;-71
2022/07/25 06:03:16;;;;;;;7.35;5.15;;;;;;;21.50;86.45;100674.94;5054491;28;20032;-72
2022/07/25 06:05:42;;;;;;;6.93;4.90;;;;;;;21.65;86.31;100687.97;5076087;28;20487;-71
2022/07/25 06:08:08;;;;;;;6.68;4.68;;;;;;;21.78;86.63;100692.34;5054931;28;20135;-71
2022/07/25 06:10:33;;;;;;;8.18;4.57;;;;;;;21.85;85.72;100695.75;5077183;28;20036;-71
2022/07/25 06:12:58;;;;;;;6.07;4.57;;;;;;;21.97;86.33;100690.41;5071251;28;20035;-71
2022/07/25 06:15:24;;;;;;;7.18;4.90;;;;;;;22.16;85.71;100691.97;5077241;28;20060;-71
2022/07/25 06:17:49;;;;;;;5.68;3.97;;;;;;;22.19;83.85;100693.41;5074076;28;20037;-71
2022/07/25 06:20:14;;;;;;;5.68;3.72;;;;;;;22.27;83.52;100692.25;5077640;28;20032;-72
2022/07/25 06:22:40;;;;;;;5.60;3.80;;;;;;;22.29;84.27;100682.09;5075128;28;20458;-72
2022/07/25 06:25:06;;;;;;;5.45;4.10;;;;;;;22.34;83.34;100695.66;5074864;28;20067;-71
2022/07/25 06:27:32;;;;;;;7.72;4.72;;;;;;;22.28;83.06;100683.97;5077184;28;20237;-71
2022/07/25 06:29:57;;;;;;;5.63;3.83;;;;;;;22.41;82.44;100684.78;5078857;28;20037;-70
2022/07/25 06:32:22;;;;;;;6.38;5.32;;;;;;;22.42;82.18;100689.13;5076329;28;20027;-71
2022/07/25 06:34:48;;;;;;;6.28;4.28;;;;;;;22.52;82.77;100671.38;5076646;28;20411;-71
2022/07/25 06:37:14;;;;;;;6.15;4.20;;;;;;;22.81;81.87;100682.22;5074073;28;20035;-71
2022/07/25 06:39:40;;;;;;;9.05;4.75;;;;;;;22.87;81.48;100685.88;5075335;28;20024;-72
2022/07/25 06:42:05;;;;;;;7.78;5.20;;;;;;;23.04;81.01;100688.66;5076727;28;20433;-72
2022/07/25 06:44:32;;;;;;;6.53;4.45;;;;;;;23.37;80.58;100690.72;5077463;28;20093;-72
2022/07/25 06:47:01;;;;;;;9.57;4.07;;;;;;;23.77;78.91;100682.59;5074971;28;20062;-72
2022/07/25 06:49:26;;;;;;;8.27;4.70;;;;;;;23.90;77.24;100684.19;5072596;28;20043;-71
2022/07/25 06:51:52;;;;;;;9.13;5.15;;;;;;;24.03;75.76;100664.19;5076470;28;20040;-71
2022/07/25 06:54:17;;;;;;;9.15;4.88;;;;;;;24.21;75.83;100669.38;5074355;28;20328;-71
2022/07/25 06:56:44;;;;;;;6.95;4.65;;;;;;;24.81;74.77;100680.53;5075440;28;20020;-72
2022/07/25 06:59:09;;;;;;;5.40;4.45;;;;;;;25.45;71.63;100682.69;5073964;28;20024;-72
2022/07/25 07:01:35;;;;;;;8.90;4.82;;;;;;;25.98;70.65;100683.81;5076158;28;20017;-72
2022/07/25 07:04:01;;;;;;;7.00;4.50;;;;;;;26.40;68.13;100682.28;5072590;28;20111;-72
2022/07/25 07:06:26;;;;;;;5.88;4.35;;;;;;;26.35;67.14;100668.69;5077959;28;20040;-72
2022/07/25 07:08:51;;;;;;;8.15;4.35;;;;;;;25.98;68.11;100683.00;5076218;28;20099;-72
2022/07/25 07:11:17;;;;;;;5.78;3.47;;;;;;;25.88;69.99;100688.28;5070084;28;20285;-71
2022/07/25 07:13:42;;;;;;;8.30;4.68;;;;;;;25.83;68.82;100676.34;5074654;28;20020;-71
2022/07/25 07:16:08;;;;;;;5.70;3.33;;;;;;;25.55;70.49;100663.09;5075175;28;20029;-71
2022/07/25 07:18:33;;;;;;;5.65;3.58;;;;;;;25.63;70.59;100676.13;5054431;28;20056;-71
2022/07/25 07:20:58;;;;;;;4.40;2.95;;;;;;;25.65;70.17;100679.41;5075740;28;20052;-71
2022/07/25 07:23:24;;;;;;;4.78;3.08;;;;;;;25.28;70.82;100685.47;5075512;28;20489;-72
2022/07/25 07:25:49;;;;;;;4.07;2.70;;;;;;;25.42;72.19;100691.31;5075997;28;20028;-72
2022/07/25 07:28:16;;;;;;;5.32;3.90;;;;;;;25.55;71.58;100698.22;5076168;28;20035;-72
2022/07/25 07:30:41;;;;;;;7.05;4.28;;;;;;;25.44;70.49;100679.19;5076339;28;20027;-72
2022/07/25 07:33:07;;;;;;;5.55;3.92;;;;;;;25.83;70.64;100691.78;5078040;28;20480;-72
2022/07/25 07:35:32;;;;;;;6.30;4.45;;;;;;;25.83;69.53;100680.97;5080710;28;20446;-72
2022/07/25 07:37:57;;;;;;;8.55;3.65;;;;;;;25.99;68.57;100687.34;5078707;28;20043;-72
2022/07/25 07:40:25;;;;;;;8.40;4.05;;;;;;;26.48;68.70;100671.78;5078999;28;20038;-71
2022/07/25 07:42:51;;;;;;;8.00;4.22;;;;;;;26.87;67.29;100676.91;5079961;28;20062;-71
2022/07/25 07:45:19;;;;;;;5.28;4.65;;;;;;;26.96;66.09;100679.94;5080447;28;20044;-71
2022/07/25 07:47:47;;;;;;;4.78;3.65;;;;;;;27.65;64.08;100659.84;5079327;28;20455;-71
2022/07/25 07:50:14;;;;;;;7.22;4.20;;;;;;;27.67;63.00;100663.13;5076854;28;20106;-71
2022/07/25 07:52:40;;;;;;;4.68;3.35;;;;;;;27.53;64.19;100672.06;5078902;28;20437;-71
2022/07/25 07:57:50;;;;;;;6.50;3.92;;;;;;;27.02;64.44;100669.94;5078488;28;20105;-71
2022/07/25 08:00:16;;;;;;;4.65;3.33;;;;;;;27.23;65.08;100673.56;5078622;28;20036;-71
2022/07/25 08:02:47;;;;;;;4.35;3.45;;;;;;;27.51;64.52;100672.31;5080746;28;20039;-71
2022/07/25 08:05:20;;;;;;;4.93;3.08;;;;;;;27.24;65.61;100664.34;5080323;28;20023;-72
2022/07/25 08:07:45;;;;;;;4.93;3.15;;;;;;;27.54;64.89;100681.78;5078579;28;20032;-72
2022/07/25 08:10:10;;;;;;;5.10;3.30;;;;;;;27.53;64.66;100666.63;5080725;28;20028;-72
2022/07/25 08:12:40;;;;;;;6.07;3.05;;;;;;;27.77;64.01;100670.47;5076809;28;20063;-72
2022/07/25 08:15:07;;;;;;;6.32;3.00;;;;;;;27.67;64.35;100673.16;5078617;28;20026;-72
2022/07/25 08:17:32;;;;;;;5.25;3.38;;;;;;;27.65;64.22;100672.59;5081409;28;20059;-72
2022/07/25 08:19:58;;;;;;;7.57;3.53;;;;;;;27.39;65.34;100667.13;5077811;28;20468;-72
2022/07/25 08:22:23;;;;;;;5.00;3.30;;;;;;;27.43;65.03;100668.22;5080548;28;20068;-72
2022/07/25 08:24:48;;;;;;;6.38;3.75;;;;;;;27.57;64.30;100665.00;5077306;28;20102;-72
2022/07/25 08:27:14;;;;;;;7.43;2.53;;;;;;;27.51;65.81;100666.09;5078045;28;20110;-71
2022/07/25 08:29:39;;;;;;;7.03;3.30;;;;;;;27.39;66.00;100677.94;5075694;28;20032;-71
2022/07/25 08:32:05;;;;;;;6.25;4.32;;;;;;;26.59;67.06;100659.16;5060854;28;20025;-71
2022/07/25 08:34:31;;;;;;;7.75;3.13;;;;;;;26.64;68.22;100658.38;5078690;28;20387;-72
2022/07/25 08:36:56;;;;;;;4.97;2.97;;;;;;;26.94;69.10;100673.16;5078072;28;20028;-72
2022/07/25 08:39:22;;;;;;;8.70;3.97;;;;;;;27.43;65.74;100676.34;5077816;28;20029;-72
2022/07/25 08:41:48;;;;;;;7.22;3.58;;;;;;;27.47;65.71;100646.81;5077684;28;20480;-72
2022/07/25 08:44:16;;;;;;;3.80;2.90;;;;;;;27.55;65.36;100656.34;5075146;28;20491;-72
2022/07/25 08:46:42;;;;;;;4.57;2.88;;;;;;;27.47;65.01;100661.19;5077030;28;20025;-72
2022/07/25 08:49:09;;;;;;;6.45;3.58;;;;;;;27.38;65.02;100668.22;5078471;28;20057;-71
2022/07/25 08:51:35;;;;;;;4.78;3.55;;;;;;;27.13;65.30;100671.59;5077094;28;20075;-71
2022/07/25 08:54:02;;;;;;;3.25;2.17;;;;;;;26.79;66.06;100655.75;5074759;28;20385;-71
2022/07/25 08:56:27;;;;;;;4.45;2.92;;;;;;;26.61;66.56;100639.94;5081086;28;20073;-71
2022/07/25 08:58:52;;;;;;;3.72;2.58;;;;;;;26.45;68.78;100653.34;5075585;28;20036;-71
2022/07/25 09:01:18;;;;;;;2.92;2.63;;;;;;;26.26;69.39;100660.25;5078521;28;20066;-72
2022/07/25 09:03:43;;;;;;;3.75;2.90;;;;;;;25.99;70.84;100668.41;5057221;28;20044;-72
2022/07/25 09:06:20;;;;;;;4.60;3.00;;;;;;;25.69;73.29;100668.91;5081601;28;20055;-72
2022/07/25 09:08:56;;;;;;;3.75;2.22;;;;;;;25.62;72.46;100656.41;5078754;28;20111;-72
2022/07/25 09:11:40;;;;;;;4.28;2.90;;;;;;;25.66;74.35;100671.06;5077073;28;20031;-72
2022/07/25 09:14:09;;;;;;;3.67;1.90;;;;;;;25.77;72.90;100677.38;5077390;28;20035;-71
2022/07/25 09:16:37;;;;;;;3.50;1.85;;;;;;;25.86;71.73;100681.25;5078106;28;20042;-72
2022/07/25 09:19:06;;;;;;;3.85;1.95;;;;;;;25.99;70.57;100696.25;5083944;28;20058;-71
2022/07/25 09:21:32;;;;;;;4.53;1.58;;;;;;;26.05;69.98;100706.06;5075017;28;20017;-72
2022/07/25 09:24:10;;;;;;;2.60;1.55;;;;;;;26.17;68.37;100713.19;5076327;28;20038;-71
2022/07/25 09:27:09;;;;;;;1.63;1.23;;;;;;;26.37;67.63;100707.97;5074010;28;20070;-71
2022/07/25 09:29:37;;;;;;;1.70;1.20;;;;;;;26.68;66.66;100700.09;5076066;28;20060;-71
2022/07/25 09:32:19;;;;;;;2.80;1.08;;;;;;;27.36;64.69;100707.50;5073633;28;20031;-71
2022/07/25 09:34:47;;;;;;;1.67;1.05;;;;;;;27.72;63.09;100703.00;5058765;28;20060;-71
2022/07/25 09:37:23;;;;;;;2.22;1.20;;;;;;;27.71;62.42;100704.06;5075250;28;20511;-71
2022/07/25 09:39:50;;;;;;;1.27;0.80;;;;;;;27.88;61.54;100703.88;5080003;28;20025;-71
2022/07/25 09:42:28;;;;;;;2.50;1.20;;;;;;;28.02;62.33;100698.72;5075219;28;20559;-71
2022/07/25 09:45:00;;;;;;;1.52;1.10;;;;;;;28.45;61.12;100701.97;5078539;28;20488;-72
2022/07/25 09:47:26;;;;;;;4.55;1.02;;;;;;;28.49;60.89;100692.22;5078358;28;20085;-73
2022/07/25 09:49:52;;;;;;;6.43;1.30;;;;;;;28.69;60.44;100697.63;5078012;28;20059;-73
2022/07/25 09:52:17;;;;;;;3.60;1.30;;;;;;;28.71;59.93;100697.34;5074378;28;20031;-71
2022/07/25 09:54:43;;;;;;;1.75;1.10;;;;;;;28.74;60.07;100704.13;5074130;28;20032;-71
2022/07/25 09:57:09;;;;;;;2.17;1.02;;;;;;;28.26;59.74;100704.41;5076604;28;20682;-71
2022/07/25 09:59:35;;;;;;;2.15;1.40;;;;;;;28.65;59.84;100695.72;5077284;28;20648;-71
2022/07/25 10:02:09;;;;;;;2.05;1.40;;;;;;;29.36;58.02;100689.28;5079563;28;20090;-71
2022/07/25 10:04:49;;;;;;;2.03;1.58;;;;;;;29.57;57.83;100686.41;5077439;28;20361;-71
2022/07/25 10:07:18;;;;;;;3.38;1.33;;;;;;;29.29;56.78;100673.25;5071681;28;20120;-71
2022/07/25 10:09:45;;;;;;;2.13;1.20;;;;;;;28.62;56.77;100697.09;5071869;28;20136;-71
2022/07/25 10:12:13;;;;;;;3.47;1.00;;;;;;;28.80;56.42;100697.59;5068980;28;20029;-71
2022/07/25 10:14:39;;;;;;;1.23;0.80;;;;;;;28.86;57.21;100685.63;5078211;28;20035;-71
2022/07/25 10:17:05;;;;;;;1.90;1.02;;;;;;;27.88;56.91;100674.03;5076201;28;20028;-71
2022/07/25 10:19:40;;;;;;;2.35;1.08;;;;;;;28.12;55.59;100698.72;5075554;28;20041;-70
2022/07/25 10:22:05;;;;;;;4.90;1.00;;;;;;;28.66;56.15;100700.88;5071320;28;20058;-71
2022/07/25 10:24:36;;;;;;;1.88;0.63;;;;;;;28.89;55.56;100723.09;5071388;28;20447;-71
2022/07/25 10:27:12;;;;;;;;;;;;;;;28.84;54.40;100728.56;5058984;28;20505;-71
2022/07/25 10:29:39;;;;;;;2.92;0.75;;;;;;;28.22;56.77;100730.47;5076385;28;19912;-71
2022/07/25 10:32:07;;;;;;;1.52;0.60;;;;;;;28.24;57.52;100734.56;5077991;28;20561;-71
2022/07/25 10:34:34;;;;;;;2.25;0.82;;;;;;;27.67;58.38;100735.50;5073875;28;20032;-71
2022/07/25 10:37:17;;;;;;;2.25;0.95;;;;;;;27.48;59.45;100733.28;5080437;28;20036;-71
2022/07/25 10:39:43;;;;;;;1.30;0.80;;;;;;;27.16;61.08;100724.47;5068187;28;20048;-71
2022/07/25 10:42:14;;;;;;;3.63;0.80;;;;;;;27.00;61.31;100710.84;5073772;28;20090;-71
2022/07/25 10:44:46;;;;;;;1.55;0.65;;;;;;;27.19;61.86;100737.47;5083766;28;20177;-71
2022/07/25 10:47:13;;;;;;;1.17;0.77;;;;;;;26.99;61.44;100743.59;5068519;28;20106;-71
2022/07/25 10:49:48;;;;;;;1.77;0.70;;;;;;;26.66;63.04;100722.00;5079566;28;20017;-71
2022/07/25 10:52:18;;;;;;;3.80;0.63;;;;;;;26.75;66.68;100729.63;5054958;28;20047;-71
2022/07/25 10:54:59;;;;;;;1.15;0.63;;;;;;;26.71;68.70;100739.34;5072138;28;20028;-71
2022/07/25 10:57:26;;;;;;;3.33;0.80;;;;;;;26.68;71.27;100722.56;5073648;28;20127;-71
2022/07/25 10:59:52;;;;;;;1.70;1.10;;;;;;;26.58;72.93;100725.19;5078545;28;20427;-71
2022/07/25 11:02:18;;;;;;;2.47;1.25;;;;;;;26.12;70.12;100722.06;5071287;28;20081;-71
2022/07/25 11:05:03;;;;;;;2.30;0.88;;;;;;;25.61;73.60;100732.34;5076752;28;20572;-71
2022/07/25 11:07:34;;;;;;;2.33;1.42;;;;;;;24.57;76.46;100744.66;5070366;28;20029;-71
2022/07/25 11:10:03;;;;;;;2.15;1.10;;;;;;;24.38;79.93;100762.94;5069090;28;20029;-71
2022/07/25 11:12:30;;;;;;;1.63;1.00;;;;;;;24.52;79.03;100747.28;5072794;28;20020;-71
2022/07/25 11:15:00;;;;;;;1.60;1.02;;;;;;;24.83;78.97;100748.59;5075734;28;20024;-71
2022/07/25 11:17:28;;;;;;;1.50;1.08;;;;;;;25.34;76.66;100746.59;5078428;28;20055;-72
2022/07/25 11:20:01;;;;;;;4.43;2.15;;;;;;;24.81;76.42;100751.53;5072962;28;20033;-71
2022/07/25 11:22:28;;;;;;;2.78;1.45;;;;;;;24.93;77.06;100746.00;5071703;28;20016;-71
2022/07/25 11:24:54;;;;;;;2.35;1.40;;;;;;;25.34;75.73;100748.50;5073682;28;20100;-71